createdAt,value
2022-11-23T00:00:42.978Z,8.04
2022-11-23T00:03:15.311Z,8.07
2022-11-23T00:05:43.075Z,8.09
2022-11-23T00:08:10.769Z,8.10
2022-11-23T00:10:38.425Z,8.11
2022-11-23T00:13:06.127Z,8.12
2022-11-23T00:15:35.540Z,8.14
2022-11-23T00:18:03.200Z,8.16
2022-11-23T00:20:30.904Z,8.16
2022-11-23T00:22:58.518Z,8.17
2022-11-23T00:25:26.176Z,8.19
2022-11-23T00:27:53.860Z,8.20
2022-11-23T00:30:21.564Z,8.21
2022-11-23T00:32:50.553Z,8.23
2022-11-23T00:35:18.258Z,8.23
2022-11-23T00:37:46.061Z,8.25
2022-11-23T00:40:13.959Z,8.26
2022-11-23T00:42:41.604Z,8.27
2022-11-23T00:45:10.439Z,8.29
2022-11-23T00:47:38.326Z,8.30
2022-11-23T00:50:07.936Z,8.32
2022-11-23T00:52:35.614Z,8.32
2022-11-23T00:55:03.252Z,8.34
2022-11-23T00:57:30.859Z,8.34
2022-11-23T00:59:58.527Z,8.36
2022-11-23T01:02:26.373Z,8.37
2022-11-23T01:04:54.036Z,8.37
2022-11-23T01:07:23.078Z,8.37
2022-11-23T01:09:50.759Z,8.37
2022-11-23T01:12:18.451Z,8.38
2022-11-23T01:14:46.058Z,8.39
2022-11-23T01:17:13.769Z,8.40
2022-11-23T01:19:41.431Z,8.41
2022-11-23T01:22:09.068Z,8.39
2022-11-23T01:24:38.047Z,8.40
2022-11-23T01:27:05.734Z,8.41
2022-11-23T01:29:33.832Z,8.42
2022-11-23T01:32:01.704Z,8.43
2022-11-23T01:34:29.384Z,8.44
2022-11-23T01:36:57.044Z,8.43
2022-11-23T01:39:24.680Z,8.45
2022-11-23T01:41:53.716Z,8.45
2022-11-23T01:44:25.119Z,8.45
2022-11-23T01:46:52.810Z,8.45
2022-11-23T01:49:20.949Z,8.45
2022-11-23T01:51:50.705Z,8.44
2022-11-23T01:54:22.768Z,8.44
2022-11-23T01:56:56.074Z,8.43
2022-11-23T01:59:24.731Z,8.42
2022-11-23T02:01:52.455Z,8.40
2022-11-23T02:04:26.814Z,8.40
2022-11-23T02:06:56.177Z,8.40
2022-11-23T02:09:24.168Z,8.40
2022-11-23T02:11:54.147Z,8.39
2022-11-23T02:14:23.606Z,8.37
2022-11-23T02:16:51.575Z,8.37
2022-11-23T02:19:31.204Z,8.35
2022-11-23T02:21:59.017Z,8.33
2022-11-23T02:24:31.683Z,8.32
2022-11-23T02:27:01.950Z,8.28
2022-11-23T02:29:30.764Z,8.27
2022-11-23T02:31:58.706Z,8.26
2022-11-23T02:34:26.370Z,8.26
2022-11-23T02:36:57.373Z,8.25
2022-11-23T02:39:30.536Z,8.25
2022-11-23T02:42:01.219Z,8.24
2022-11-23T02:44:37.574Z,8.22
2022-11-23T02:47:06.594Z,8.20
2022-11-23T02:49:34.509Z,8.22
2022-11-23T02:52:02.991Z,8.21
2022-11-23T02:54:30.903Z,8.20
2022-11-23T02:56:59.972Z,8.20
2022-11-23T02:59:27.589Z,8.20
2022-11-23T03:01:55.314Z,8.21
2022-11-23T03:04:27.671Z,8.19
2022-11-23T03:06:55.984Z,8.17
2022-11-23T03:09:26.129Z,8.19
2022-11-23T03:11:54.174Z,8.20
2022-11-23T03:14:23.198Z,8.20
2022-11-23T03:16:50.828Z,8.19
2022-11-23T03:19:18.582Z,8.19
2022-11-23T03:21:46.244Z,8.18
2022-11-23T03:24:13.917Z,8.18
2022-11-23T03:26:41.581Z,8.17
2022-11-23T03:29:09.192Z,8.17
2022-11-23T03:31:38.365Z,8.14
2022-11-23T03:34:06.073Z,8.14
2022-11-23T03:36:33.764Z,8.15
2022-11-23T03:39:01.454Z,8.14
2022-11-23T03:41:29.113Z,8.15
2022-11-23T03:43:56.783Z,8.13
2022-11-23T03:46:24.411Z,8.14
2022-11-23T03:48:53.510Z,8.15
2022-11-23T03:51:21.330Z,8.13
2022-11-23T03:53:49.017Z,8.14
2022-11-23T03:56:16.661Z,8.12
2022-11-23T03:58:44.325Z,8.12
2022-11-23T04:01:12.069Z,8.12
2022-11-23T04:03:39.741Z,8.13
2022-11-23T04:06:08.973Z,8.13
2022-11-23T04:08:36.748Z,8.13
2022-11-23T04:11:04.560Z,8.13
2022-11-23T04:13:32.243Z,8.12
2022-11-23T04:15:59.951Z,8.14
2022-11-23T04:18:27.595Z,8.14
2022-11-23T04:20:55.272Z,8.16
2022-11-23T04:23:24.329Z,8.16
2022-11-23T04:25:51.990Z,8.16
2022-11-23T04:28:19.706Z,8.18
2022-11-23T04:30:47.365Z,8.19
2022-11-23T04:33:15.002Z,8.21
2022-11-23T04:35:42.638Z,8.21
2022-11-23T04:38:10.267Z,8.20
2022-11-23T04:40:39.280Z,8.18
2022-11-23T04:43:07.880Z,8.17
2022-11-23T04:45:39.403Z,8.15
2022-11-23T04:48:07.505Z,8.15
2022-11-23T04:50:35.543Z,8.15
2022-11-23T04:53:03.308Z,8.15
2022-11-23T04:55:30.945Z,8.14
2022-11-23T04:58:00.061Z,8.12
2022-11-23T05:00:28.039Z,8.10
2022-11-23T05:02:55.704Z,8.10
2022-11-23T05:05:23.338Z,8.11
2022-11-23T05:07:51.046Z,8.11
2022-11-23T05:10:18.874Z,8.07
2022-11-23T05:12:46.570Z,8.04
2022-11-23T05:15:15.624Z,8.00
2022-11-23T05:17:43.363Z,7.95
2022-11-23T05:20:12.241Z,7.93
2022-11-23T05:22:39.956Z,7.89
2022-11-23T05:25:08.471Z,7.89
2022-11-23T05:27:36.496Z,7.89
2022-11-23T05:30:05.005Z,7.89
2022-11-23T05:32:33.985Z,7.88
2022-11-23T05:35:01.729Z,7.89
2022-11-23T05:37:29.382Z,7.91
2022-11-23T05:39:57.115Z,7.93
2022-11-23T05:42:24.808Z,7.96
2022-11-23T05:44:52.473Z,7.96
2022-11-23T05:47:20.345Z,7.99
2022-11-23T05:49:49.549Z,8.01
2022-11-23T05:52:17.384Z,8.04
2022-11-23T05:54:45.284Z,8.06
2022-11-23T05:57:13.136Z,8.08
2022-11-23T05:59:40.832Z,8.10
2022-11-23T06:02:08.441Z,8.11
2022-11-23T06:04:36.172Z,8.12
2022-11-23T06:07:05.916Z,8.13
2022-11-23T06:09:34.032Z,8.14
2022-11-23T06:12:01.658Z,8.11
2022-11-23T06:14:29.330Z,8.13
2022-11-23T06:16:56.998Z,8.13
2022-11-23T06:19:24.678Z,8.14
2022-11-23T06:21:52.365Z,8.15
2022-11-23T06:24:21.423Z,8.15
2022-11-23T06:26:49.079Z,8.17
2022-11-23T06:29:16.944Z,8.16
2022-11-23T06:31:44.677Z,8.15
2022-11-23T06:34:12.382Z,8.15
2022-11-23T06:36:40.467Z,8.14
2022-11-23T06:39:08.183Z,8.13
2022-11-23T06:41:37.374Z,8.14
2022-11-23T06:44:05.278Z,8.13
2022-11-23T06:46:33.069Z,8.13
2022-11-23T06:49:00.697Z,8.14
2022-11-23T06:51:28.446Z,8.12
2022-11-23T06:53:56.104Z,8.11
2022-11-23T06:56:23.791Z,8.11
2022-11-23T06:58:52.938Z,8.09
2022-11-23T07:01:20.635Z,8.05
2022-11-23T07:03:48.341Z,8.03
2022-11-23T07:06:16.101Z,8.01
2022-11-23T07:08:44.231Z,7.97
2022-11-23T07:11:12.667Z,7.93
2022-11-23T07:13:40.753Z,7.96
2022-11-23T07:16:09.940Z,7.92
2022-11-23T07:18:37.584Z,7.88
2022-11-23T07:21:05.194Z,7.84
2022-11-23T07:23:32.879Z,7.77
2022-11-23T07:26:00.551Z,7.74
2022-11-23T07:28:28.204Z,7.69
2022-11-23T07:30:55.925Z,7.66
2022-11-23T07:33:24.995Z,7.64
2022-11-23T07:35:52.685Z,7.63
2022-11-23T07:38:20.375Z,7.63
2022-11-23T07:40:51.074Z,7.65
2022-11-23T07:43:18.814Z,7.68
2022-11-23T07:45:46.695Z,7.71
2022-11-23T07:48:14.518Z,7.74
2022-11-23T07:50:58.625Z,7.76
2022-11-23T07:53:26.536Z,7.81
2022-11-23T07:55:57.433Z,7.81
2022-11-23T07:58:25.591Z,7.84
2022-11-23T08:00:53.502Z,7.85
2022-11-23T08:03:30.060Z,7.87
2022-11-23T08:05:59.531Z,7.91
2022-11-23T08:08:27.313Z,7.93
2022-11-23T08:10:55.054Z,7.97
2022-11-23T08:13:23.760Z,8.00
2022-11-23T08:15:55.279Z,8.03
2022-11-23T08:18:24.360Z,8.05
2022-11-23T08:20:52.142Z,8.06
2022-11-23T08:23:21.645Z,8.09
2022-11-23T08:25:49.382Z,8.08
2022-11-23T08:28:18.706Z,8.11
2022-11-23T08:30:46.597Z,8.12
2022-11-23T08:33:15.003Z,8.13
2022-11-23T08:35:44.006Z,8.14
2022-11-23T08:38:12.533Z,8.16
2022-11-23T08:40:41.783Z,8.19
2022-11-23T08:43:09.435Z,8.27
2022-11-23T08:45:37.319Z,8.37
2022-11-23T08:48:06.044Z,8.40
2022-11-23T08:50:35.480Z,8.50
2022-11-23T08:53:03.145Z,8.59
2022-11-23T08:55:30.921Z,8.65
2022-11-23T08:57:59.983Z,8.67
2022-11-23T09:00:28.595Z,8.70
2022-11-23T09:02:58.249Z,8.68
2022-11-23T09:05:26.148Z,8.73
2022-11-23T09:07:53.887Z,8.70
2022-11-23T09:10:21.843Z,8.67
2022-11-23T09:12:49.762Z,8.69
2022-11-23T09:15:19.574Z,8.72
2022-11-23T09:17:47.297Z,8.74
2022-11-23T09:20:15.144Z,8.80
2022-11-23T09:22:42.824Z,8.88
2022-11-23T09:25:10.851Z,8.97
2022-11-23T09:27:38.542Z,9.07
2022-11-23T09:30:07.289Z,9.13
2022-11-23T09:32:36.319Z,9.11
2022-11-23T09:35:04.165Z,9.18
2022-11-23T09:37:31.825Z,9.33
2022-11-23T09:39:59.608Z,9.50
2022-11-23T09:42:53.402Z,9.67
2022-11-23T09:45:29.174Z,9.87
2022-11-23T09:48:32.669Z,9.99
2022-11-23T09:51:07.023Z,10.08
2022-11-23T09:53:39.569Z,10.19
2022-11-23T09:56:17.136Z,10.23
2022-11-23T09:58:44.808Z,10.38
2022-11-23T10:01:15.500Z,10.38
2022-11-23T10:03:48.749Z,10.46
2022-11-23T10:06:25.670Z,10.62
2022-11-23T10:09:03.338Z,10.63
2022-11-23T10:11:50.095Z,10.73
2022-11-23T10:14:33.835Z,10.73
2022-11-23T10:17:09.873Z,10.82
2022-11-23T10:19:52.865Z,10.86
2022-11-23T10:22:27.481Z,11.00
2022-11-23T10:24:55.207Z,11.19
2022-11-23T10:27:25.338Z,11.27
2022-11-23T10:29:53.464Z,11.27
2022-11-23T10:32:27.739Z,11.25
2022-11-23T10:35:05.344Z,11.39
2022-11-23T10:37:35.150Z,11.40
2022-11-23T10:40:02.976Z,11.49
2022-11-23T10:42:34.583Z,11.71
2022-11-23T10:45:02.535Z,11.84
2022-11-23T10:47:39.856Z,11.67
2022-11-23T10:50:30.056Z,11.70
2022-11-23T10:53:01.333Z,11.89
2022-11-23T10:55:31.087Z,11.97
2022-11-23T10:57:59.494Z,12.08
2022-11-23T11:00:31.178Z,12.23
2022-11-23T11:03:00.118Z,12.13
2022-11-23T11:08:23.984Z,12.41
2022-11-23T11:10:59.940Z,12.57
2022-11-23T11:13:31.032Z,12.40
2022-11-23T11:16:01.000Z,12.21
2022-11-23T11:18:31.898Z,11.94
2022-11-23T11:21:03.048Z,11.64
2022-11-23T11:23:34.896Z,11.36
2022-11-23T11:26:09.432Z,11.18
2022-11-23T11:28:41.489Z,11.00
2022-11-23T11:31:41.770Z,10.85
2022-11-23T11:34:18.814Z,10.79
2022-11-23T11:36:52.597Z,10.71
2022-11-23T11:39:26.822Z,10.63
2022-11-23T11:41:59.132Z,10.63
2022-11-23T11:44:28.326Z,10.71
2022-11-23T11:47:01.739Z,10.81
2022-11-23T11:49:33.243Z,10.86
2022-11-23T11:52:08.536Z,10.87
2022-11-23T11:54:44.928Z,11.24
2022-11-23T11:57:22.639Z,11.66
2022-11-23T11:59:54.258Z,12.16
2022-11-23T12:02:26.340Z,12.48
2022-11-23T12:05:11.630Z,12.79
2022-11-23T12:07:47.322Z,13.18
2022-11-23T12:10:21.757Z,12.95
2022-11-23T12:12:49.755Z,12.93
2022-11-23T12:15:47.680Z,12.85
2022-11-23T12:18:33.709Z,12.87
2022-11-23T12:21:23.625Z,12.98
2022-11-23T12:24:01.114Z,13.34
2022-11-23T12:26:38.884Z,13.73
2022-11-23T12:29:41.171Z,13.93
2022-11-23T12:32:19.662Z,14.33
2022-11-23T12:35:07.136Z,14.41
2022-11-23T12:37:45.546Z,14.60
2022-11-23T12:40:46.227Z,14.40
2022-11-23T12:43:23.388Z,14.27
2022-11-23T12:46:12.963Z,13.90
2022-11-23T12:49:02.279Z,13.82
2022-11-23T12:51:41.751Z,13.83
2022-11-23T12:54:26.346Z,13.67
2022-11-23T12:57:08.272Z,13.79
2022-11-23T12:59:45.293Z,13.71
2022-11-23T13:02:36.833Z,13.87
2022-11-23T13:05:38.050Z,13.34
2022-11-23T13:08:40.876Z,12.84
2022-11-23T13:11:25.127Z,12.72
2022-11-23T13:14:04.834Z,12.56
2022-11-23T13:17:01.448Z,12.39
2022-11-23T13:19:43.975Z,12.19
2022-11-23T13:22:15.428Z,11.98
2022-11-23T13:25:02.231Z,11.73
2022-11-23T13:27:44.311Z,11.46
2022-11-23T13:30:27.379Z,11.39
2022-11-23T13:33:18.326Z,11.27
2022-11-23T13:35:55.761Z,11.20
2022-11-23T13:38:38.147Z,11.08
2022-11-23T13:41:56.558Z,11.02
2022-11-23T13:44:30.386Z,10.93
2022-11-23T13:47:07.705Z,10.89
2022-11-23T13:49:45.410Z,10.84
2022-11-23T13:52:26.535Z,10.71
2022-11-23T13:54:57.587Z,10.65
2022-11-23T13:57:25.510Z,10.49
2022-11-23T13:59:53.307Z,10.26
2022-11-23T14:02:30.979Z,10.03
2022-11-23T14:05:54.033Z,9.86
2022-11-23T14:08:22.314Z,9.58
2022-11-23T14:10:51.613Z,9.44
2022-11-23T14:13:23.302Z,9.35
2022-11-23T14:15:58.050Z,9.22
2022-11-23T14:18:57.432Z,9.06
2022-11-23T14:21:37.376Z,8.91
2022-11-23T14:24:34.637Z,8.79
2022-11-23T14:27:45.124Z,8.73
2022-11-23T14:30:07.816Z,8.68
2022-11-23T14:32:48.815Z,8.62
2022-11-23T14:35:29.413Z,8.53
2022-11-23T14:38:26.663Z,8.52
2022-11-23T14:41:07.145Z,8.52
2022-11-23T14:43:36.804Z,8.46
2022-11-23T14:46:07.220Z,8.37
2022-11-23T14:48:36.892Z,8.35
2022-11-23T14:51:07.413Z,8.33
2022-11-23T14:53:46.482Z,8.30
2022-11-23T14:56:26.943Z,8.26
2022-11-23T14:58:56.532Z,8.23
2022-11-23T15:01:26.857Z,8.22
2022-11-23T15:03:58.451Z,8.20
2022-11-23T15:06:31.568Z,8.18
2022-11-23T15:09:09.971Z,8.14
2022-11-23T15:11:38.705Z,8.12
2022-11-23T15:14:19.172Z,8.10
2022-11-23T15:16:47.667Z,8.06
2022-11-23T15:19:21.450Z,8.05
2022-11-23T15:21:49.467Z,8.02
2022-11-23T15:24:26.563Z,8.02
2022-11-23T15:26:56.909Z,8.00
2022-11-23T15:29:33.203Z,7.98
2022-11-23T15:34:50.497Z,7.95
2022-11-23T15:37:18.787Z,7.93
2022-11-23T15:39:48.687Z,7.91
2022-11-23T15:42:19.932Z,7.91
2022-11-23T15:44:51.061Z,7.89
2022-11-23T15:47:23.763Z,7.87
2022-11-23T15:49:51.460Z,7.88
2022-11-23T15:52:20.914Z,7.87
2022-11-23T15:54:50.238Z,7.86
2022-11-23T15:57:21.430Z,7.86
2022-11-23T15:59:51.328Z,7.86
2022-11-23T16:02:23.386Z,7.86
2022-11-23T16:05:06.245Z,7.85
2022-11-23T16:07:33.898Z,7.86
2022-11-23T16:10:17.589Z,7.85
2022-11-23T16:12:50.905Z,7.86
2022-11-23T16:15:33.678Z,7.85
2022-11-23T16:18:01.704Z,7.84
2022-11-23T16:20:30.432Z,7.84
2022-11-23T16:23:01.051Z,7.84
2022-11-23T16:25:32.693Z,7.84
2022-11-23T16:28:01.190Z,7.82
2022-11-23T16:30:36.827Z,7.82
2022-11-23T16:33:05.032Z,7.81
2022-11-23T16:35:32.683Z,7.84
2022-11-23T16:38:00.558Z,7.81
2022-11-23T16:40:28.346Z,7.80
2022-11-23T16:42:57.473Z,7.81
2022-11-23T16:45:25.601Z,7.81
2022-11-23T16:47:55.559Z,7.82
2022-11-23T16:50:23.825Z,7.85
2022-11-23T16:52:51.688Z,7.84
2022-11-23T16:55:19.635Z,7.85
2022-11-23T16:57:48.040Z,7.87
2022-11-23T17:00:19.584Z,7.87
2022-11-23T17:02:47.420Z,7.87
2022-11-23T17:05:16.323Z,7.87
2022-11-23T17:07:44.419Z,7.88
2022-11-23T17:10:12.640Z,7.91
2022-11-23T17:12:41.444Z,7.89
2022-11-23T17:15:13.264Z,7.90
2022-11-23T17:17:42.328Z,7.90
2022-11-23T17:20:13.614Z,7.91
2022-11-23T17:22:41.437Z,7.92
2022-11-23T17:25:14.928Z,7.94
2022-11-23T17:27:43.764Z,7.95
2022-11-23T17:30:15.821Z,7.97
2022-11-23T17:32:45.029Z,7.97
2022-11-23T17:35:12.674Z,7.97
2022-11-23T17:37:40.516Z,7.98
2022-11-23T17:40:14.625Z,8.01
2022-11-23T17:42:42.305Z,8.00
2022-11-23T17:45:10.848Z,8.02
2022-11-23T17:47:39.395Z,8.01
2022-11-23T17:50:13.973Z,8.01
2022-11-23T17:52:44.332Z,8.03
2022-11-23T17:55:12.884Z,8.03
2022-11-23T17:57:40.942Z,8.03
2022-11-23T18:00:17.117Z,8.05
2022-11-23T18:02:44.863Z,8.03
2022-11-23T18:05:19.683Z,8.04
2022-11-23T18:07:49.399Z,8.03
2022-11-23T18:10:17.731Z,8.04
2022-11-23T18:12:45.526Z,8.06
2022-11-23T18:15:13.960Z,8.06
2022-11-23T18:17:42.114Z,8.04
2022-11-23T18:20:10.496Z,8.05
2022-11-23T18:22:39.511Z,8.04
2022-11-23T18:25:07.737Z,8.07
2022-11-23T18:27:35.496Z,8.09
2022-11-23T18:30:03.223Z,8.07
2022-11-23T18:32:30.920Z,8.05
2022-11-23T18:34:58.618Z,8.02
2022-11-23T18:37:26.348Z,7.98
2022-11-23T18:39:55.308Z,7.96
2022-11-23T18:42:23.174Z,7.94
2022-11-23T18:44:50.840Z,7.91
2022-11-23T18:47:18.508Z,7.89
2022-11-23T18:49:46.193Z,7.86
2022-11-23T18:52:14.003Z,7.84
2022-11-23T18:54:41.694Z,7.80
2022-11-23T18:57:12.007Z,7.78
2022-11-23T18:59:57.424Z,7.75
2022-11-23T19:02:25.900Z,7.72
2022-11-23T19:04:53.556Z,7.69
2022-11-23T19:07:26.626Z,7.65
2022-11-23T19:09:54.950Z,7.62
2022-11-23T19:12:24.027Z,7.58
2022-11-23T19:14:51.690Z,7.57
2022-11-23T19:17:19.421Z,7.55
2022-11-23T19:19:47.138Z,7.52
2022-11-23T19:22:14.817Z,7.50
2022-11-23T19:24:42.467Z,7.49
2022-11-23T19:27:10.124Z,7.48
2022-11-23T19:29:39.220Z,7.45
2022-11-23T19:32:07.311Z,7.44
2022-11-23T19:34:35.027Z,7.42
2022-11-23T19:37:02.707Z,7.41
2022-11-23T19:39:30.606Z,7.43
2022-11-23T19:41:58.522Z,7.42
2022-11-23T19:44:26.345Z,7.39
2022-11-23T19:46:55.599Z,7.39
2022-11-23T19:49:23.315Z,7.37
2022-11-23T19:51:52.572Z,7.36
2022-11-23T19:54:22.770Z,7.34
2022-11-23T19:56:50.769Z,7.32
2022-11-23T19:59:18.443Z,7.29
2022-11-23T20:01:46.305Z,7.26
2022-11-23T20:04:15.368Z,7.23
2022-11-23T20:06:43.236Z,7.20
2022-11-23T20:09:12.479Z,7.17
2022-11-23T20:11:41.359Z,7.16
2022-11-23T20:14:11.264Z,7.17
2022-11-23T20:16:39.641Z,7.18
2022-11-23T20:19:09.122Z,7.19
2022-11-23T20:21:39.040Z,7.16
2022-11-23T20:24:12.079Z,7.15
2022-11-23T20:26:40.943Z,7.13
2022-11-23T20:29:09.624Z,7.12
2022-11-23T20:31:38.469Z,7.11
2022-11-23T20:34:07.823Z,7.09
2022-11-23T20:36:39.124Z,7.05
2022-11-23T20:39:09.310Z,7.03
2022-11-23T20:41:38.192Z,6.99
2022-11-23T20:44:07.801Z,6.98
2022-11-23T20:47:00.735Z,6.97
2022-11-23T20:49:23.175Z,6.92
2022-11-23T20:51:52.306Z,6.88
2022-11-23T20:54:20.032Z,6.87
2022-11-23T20:56:47.684Z,6.84
2022-11-23T20:59:15.549Z,6.83
2022-11-23T21:01:43.261Z,6.80
2022-11-23T21:04:11.032Z,6.79
2022-11-23T21:06:40.217Z,6.81
2022-11-23T21:09:11.050Z,6.81
2022-11-23T21:11:56.245Z,6.83
2022-11-23T21:14:27.615Z,6.84
2022-11-23T21:16:58.258Z,6.90
2022-11-23T21:19:27.533Z,6.94
2022-11-23T21:22:11.722Z,6.98
2022-11-23T21:24:41.208Z,6.99
2022-11-23T21:27:13.002Z,6.99
2022-11-23T21:29:40.779Z,6.97
2022-11-23T21:32:08.435Z,6.93
2022-11-23T21:34:36.430Z,6.94
2022-11-23T21:37:04.202Z,6.94
2022-11-23T21:39:32.977Z,6.94
2022-11-23T21:42:02.136Z,6.96
2022-11-23T21:44:29.942Z,6.97
2022-11-23T21:46:57.801Z,6.99
2022-11-23T21:49:28.296Z,7.00
2022-11-23T21:51:55.904Z,7.02
2022-11-23T21:54:23.558Z,7.04
2022-11-23T21:56:51.234Z,7.04
2022-11-23T21:59:20.295Z,7.11
2022-11-23T22:01:48.183Z,7.13
2022-11-23T22:04:17.024Z,7.14
2022-11-23T22:06:45.482Z,7.20
2022-11-23T22:09:14.414Z,7.19
2022-11-23T22:11:43.901Z,7.20
2022-11-23T22:14:13.086Z,7.21
2022-11-23T22:16:43.810Z,7.23
2022-11-23T22:19:12.871Z,7.23
2022-11-23T22:21:42.230Z,7.25
2022-11-23T22:24:12.959Z,7.27
2022-11-23T22:26:40.811Z,7.27
2022-11-23T22:29:10.754Z,7.29
2022-11-23T22:31:38.785Z,7.31
2022-11-23T22:34:11.264Z,7.32
2022-11-23T22:36:39.067Z,7.32
2022-11-23T22:39:08.082Z,7.35
2022-11-23T22:41:37.936Z,7.37
2022-11-23T22:44:07.908Z,7.37
2022-11-23T22:46:36.185Z,7.39
2022-11-23T22:49:04.015Z,7.38
2022-11-23T22:51:33.277Z,7.41
2022-11-23T22:54:01.889Z,7.42
2022-11-23T22:56:30.763Z,7.43
2022-11-23T22:58:58.850Z,7.46
2022-11-23T23:01:29.263Z,7.48
2022-11-23T23:03:59.067Z,7.54
2022-11-23T23:06:29.163Z,7.56
2022-11-23T23:09:00.559Z,7.60
2022-11-23T23:11:30.049Z,7.64
2022-11-23T23:13:58.414Z,7.69
2022-11-23T23:16:27.059Z,7.70
2022-11-23T23:18:55.672Z,7.72
2022-11-23T23:21:23.786Z,7.74
2022-11-23T23:23:52.840Z,7.75
2022-11-23T23:26:23.585Z,7.73
2022-11-23T23:28:55.490Z,7.73
2022-11-23T23:31:23.443Z,7.71
2022-11-23T23:33:53.497Z,7.69
2022-11-23T23:36:22.634Z,7.67
2022-11-23T23:38:50.916Z,7.68
2022-11-23T23:41:18.907Z,7.64
2022-11-23T23:43:48.999Z,7.64
2022-11-23T23:46:17.105Z,7.65
2022-11-23T23:48:44.603Z,7.67
2022-11-23T23:51:14.017Z,7.67
2022-11-23T23:53:42.439Z,7.66
2022-11-23T23:56:14.405Z,7.70
2022-11-23T23:58:42.490Z,7.72
